sensor_id;sensor_type;location;lat;lon;timestamp;P1;durP1;ratioP1;P2;durP2;ratioP2
15764;SDS011;7983;50.744;7.086;2022-11-20T00:01:27;14.60;;;9.40;;
15764;SDS011;7983;50.744;7.086;2022-11-20T00:03:54;14.20;;;10.03;;
15764;SDS011;7983;50.744;7.086;2022-11-20T00:06:22;12.00;;;9.03;;
15764;SDS011;7983;50.744;7.086;2022-11-20T00:08:48;13.53;;;9.63;;
15764;SDS011;7983;50.744;7.086;2022-11-20T00:11:19;13.10;;;9.87;;
15764;SDS011;7983;50.744;7.086;2022-11-20T00:13:47;15.20;;;10.77;;
15764;SDS011;7983;50.744;7.086;2022-11-20T00:16:15;13.60;;;9.70;;
15764;SDS011;7983;50.744;7.086;2022-11-20T00:18:45;13.50;;;9.60;;
15764;SDS011;7983;50.744;7.086;2022-11-20T00:21:11;13.03;;;9.60;;
15764;SDS011;7983;50.744;7.086;2022-11-20T00:23:43;14.13;;;9.70;;
15764;SDS011;7983;50.744;7.086;2022-11-20T00:26:15;15.37;;;10.60;;
15764;SDS011;7983;50.744;7.086;2022-11-20T00:28:43;13.27;;;9.63;;
15764;SDS011;7983;50.744;7.086;2022-11-20T00:31:16;12.00;;;9.30;;
15764;SDS011;7983;50.744;7.086;2022-11-20T00:33:47;12.40;;;9.20;;
15764;SDS011;7983;50.744;7.086;2022-11-20T00:36:14;11.70;;;8.93;;
15764;SDS011;7983;50.744;7.086;2022-11-20T00:38:44;12.70;;;9.03;;
15764;SDS011;7983;50.744;7.086;2022-11-20T00:41:11;12.40;;;9.20;;
15764;SDS011;7983;50.744;7.086;2022-11-20T00:43:38;11.57;;;8.83;;
15764;SDS011;7983;50.744;7.086;2022-11-20T00:46:08;14.07;;;9.47;;
15764;SDS011;7983;50.744;7.086;2022-11-20T00:48:40;12.63;;;9.43;;
15764;SDS011;7983;50.744;7.086;2022-11-20T00:51:06;11.83;;;8.93;;
15764;SDS011;7983;50.744;7.086;2022-11-20T00:53:34;11.77;;;8.53;;
15764;SDS011;7983;50.744;7.086;2022-11-20T00:56:04;15.33;;;10.37;;
15764;SDS011;7983;50.744;7.086;2022-11-20T00:58:35;12.83;;;9.53;;
15764;SDS011;7983;50.744;7.086;2022-11-20T01:01:11;11.43;;;9.07;;
15764;SDS011;7983;50.744;7.086;2022-11-20T01:03:40;13.07;;;9.57;;
15764;SDS011;7983;50.744;7.086;2022-11-20T01:06:14;13.27;;;9.60;;
15764;SDS011;7983;50.744;7.086;2022-11-20T01:08:40;12.77;;;9.73;;
15764;SDS011;7983;50.744;7.086;2022-11-20T01:11:10;13.47;;;9.57;;
15764;SDS011;7983;50.744;7.086;2022-11-20T01:13:37;14.27;;;10.07;;
15764;SDS011;7983;50.744;7.086;2022-11-20T01:18:38;13.40;;;10.00;;
15764;SDS011;7983;50.744;7.086;2022-11-20T01:21:09;13.47;;;9.90;;
15764;SDS011;7983;50.744;7.086;2022-11-20T01:23:43;14.53;;;9.67;;
15764;SDS011;7983;50.744;7.086;2022-11-20T01:26:11;13.13;;;9.90;;
15764;SDS011;7983;50.744;7.086;2022-11-20T01:28:40;13.53;;;10.07;;
15764;SDS011;7983;50.744;7.086;2022-11-20T01:31:10;13.73;;;9.73;;
15764;SDS011;7983;50.744;7.086;2022-11-20T01:33:41;14.63;;;9.53;;
15764;SDS011;7983;50.744;7.086;2022-11-20T01:36:07;12.63;;;9.50;;
15764;SDS011;7983;50.744;7.086;2022-11-20T01:38:34;12.10;;;8.73;;
15764;SDS011;7983;50.744;7.086;2022-11-20T01:41:02;12.50;;;8.90;;
15764;SDS011;7983;50.744;7.086;2022-11-20T01:43:29;13.80;;;9.80;;
15764;SDS011;7983;50.744;7.086;2022-11-20T01:45:56;13.50;;;9.60;;
15764;SDS011;7983;50.744;7.086;2022-11-20T01:48:26;12.37;;;8.90;;
15764;SDS011;7983;50.744;7.086;2022-11-20T01:51:17;12.30;;;8.97;;
15764;SDS011;7983;50.744;7.086;2022-11-20T01:54:00;10.13;;;7.83;;
15764;SDS011;7983;50.744;7.086;2022-11-20T01:56:31;12.63;;;8.83;;
15764;SDS011;7983;50.744;7.086;2022-11-20T01:59:01;12.73;;;8.63;;
15764;SDS011;7983;50.744;7.086;2022-11-20T02:01:29;12.77;;;8.90;;
15764;SDS011;7983;50.744;7.086;2022-11-20T02:03:54;12.33;;;9.63;;
15764;SDS011;7983;50.744;7.086;2022-11-20T02:06:24;13.57;;;9.97;;
15764;SDS011;7983;50.744;7.086;2022-11-20T02:08:55;12.10;;;9.13;;
15764;SDS011;7983;50.744;7.086;2022-11-20T02:11:20;12.00;;;9.00;;
15764;SDS011;7983;50.744;7.086;2022-11-20T02:13:47;13.80;;;9.80;;
15764;SDS011;7983;50.744;7.086;2022-11-20T02:18:46;13.27;;;9.30;;
15764;SDS011;7983;50.744;7.086;2022-11-20T02:24:26;9.83;;;7.50;;
15764;SDS011;7983;50.744;7.086;2022-11-20T02:29:32;9.33;;;7.37;;
15764;SDS011;7983;50.744;7.086;2022-11-20T02:34:49;9.67;;;7.07;;
15764;SDS011;7983;50.744;7.086;2022-11-20T02:37:15;10.60;;;7.90;;
15764;SDS011;7983;50.744;7.086;2022-11-20T02:39:41;11.80;;;8.20;;
15764;SDS011;7983;50.744;7.086;2022-11-20T02:42:13;10.07;;;7.67;;
15764;SDS011;7983;50.744;7.086;2022-11-20T02:44:45;10.07;;;7.33;;
15764;SDS011;7983;50.744;7.086;2022-11-20T02:47:13;9.60;;;7.67;;
15764;SDS011;7983;50.744;7.086;2022-11-20T02:49:41;10.47;;;8.13;;
15764;SDS011;7983;50.744;7.086;2022-11-20T02:52:09;9.50;;;7.57;;
15764;SDS011;7983;50.744;7.086;2022-11-20T02:54:34;10.37;;;7.83;;
15764;SDS011;7983;50.744;7.086;2022-11-20T02:57:02;11.27;;;7.90;;
15764;SDS011;7983;50.744;7.086;2022-11-20T02:59:28;10.53;;;7.93;;
15764;SDS011;7983;50.744;7.086;2022-11-20T03:01:53;14.90;;;8.83;;
15764;SDS011;7983;50.744;7.086;2022-11-20T03:04:19;11.47;;;8.63;;
15764;SDS011;7983;50.744;7.086;2022-11-20T03:06:44;11.63;;;8.87;;
15764;SDS011;7983;50.744;7.086;2022-11-20T03:09:12;11.23;;;8.33;;
15764;SDS011;7983;50.744;7.086;2022-11-20T03:11:38;11.20;;;8.37;;
15764;SDS011;7983;50.744;7.086;2022-11-20T03:14:04;10.90;;;7.97;;
15764;SDS011;7983;50.744;7.086;2022-11-20T03:16:30;12.33;;;8.33;;
15764;SDS011;7983;50.744;7.086;2022-11-20T03:18:57;13.07;;;8.73;;
15764;SDS011;7983;50.744;7.086;2022-11-20T03:21:26;10.90;;;8.27;;
15764;SDS011;7983;50.744;7.086;2022-11-20T03:23:52;11.53;;;8.73;;
15764;SDS011;7983;50.744;7.086;2022-11-20T03:26:22;11.33;;;8.60;;
15764;SDS011;7983;50.744;7.086;2022-11-20T03:28:52;12.13;;;9.23;;
15764;SDS011;7983;50.744;7.086;2022-11-20T03:31:25;14.90;;;9.67;;
15764;SDS011;7983;50.744;7.086;2022-11-20T03:33:57;12.50;;;9.13;;
15764;SDS011;7983;50.744;7.086;2022-11-20T03:36:24;13.20;;;9.03;;
15764;SDS011;7983;50.744;7.086;2022-11-20T03:38:50;12.33;;;8.90;;
15764;SDS011;7983;50.744;7.086;2022-11-20T03:41:21;13.03;;;9.63;;
15764;SDS011;7983;50.744;7.086;2022-11-20T03:43:59;12.87;;;8.97;;
15764;SDS011;7983;50.744;7.086;2022-11-20T03:46:27;12.90;;;9.47;;
15764;SDS011;7983;50.744;7.086;2022-11-20T03:48:53;13.40;;;9.33;;
15764;SDS011;7983;50.744;7.086;2022-11-20T03:51:23;13.50;;;9.30;;
15764;SDS011;7983;50.744;7.086;2022-11-20T03:53:51;14.23;;;9.73;;
15764;SDS011;7983;50.744;7.086;2022-11-20T03:56:19;15.50;;;10.50;;
15764;SDS011;7983;50.744;7.086;2022-11-20T03:58:49;13.57;;;9.57;;
15764;SDS011;7983;50.744;7.086;2022-11-20T04:01:16;13.43;;;9.20;;
15764;SDS011;7983;50.744;7.086;2022-11-20T04:03:44;14.57;;;9.87;;
15764;SDS011;7983;50.744;7.086;2022-11-20T04:06:15;15.17;;;10.33;;
15764;SDS011;7983;50.744;7.086;2022-11-20T04:08:44;14.00;;;9.50;;
15764;SDS011;7983;50.744;7.086;2022-11-20T04:11:20;13.73;;;9.40;;
15764;SDS011;7983;50.744;7.086;2022-11-20T04:13:47;14.40;;;9.70;;
15764;SDS011;7983;50.744;7.086;2022-11-20T04:16:14;15.20;;;9.83;;
15764;SDS011;7983;50.744;7.086;2022-11-20T04:18:40;16.40;;;11.07;;
15764;SDS011;7983;50.744;7.086;2022-11-20T04:21:06;16.63;;;10.40;;
15764;SDS011;7983;50.744;7.086;2022-11-20T04:23:32;15.07;;;10.00;;
15764;SDS011;7983;50.744;7.086;2022-11-20T04:26:02;14.97;;;9.80;;
15764;SDS011;7983;50.744;7.086;2022-11-20T04:28:32;15.93;;;10.10;;
15764;SDS011;7983;50.744;7.086;2022-11-20T04:31:05;14.83;;;10.53;;
15764;SDS011;7983;50.744;7.086;2022-11-20T04:33:37;14.67;;;9.80;;
15764;SDS011;7983;50.744;7.086;2022-11-20T04:39:02;14.87;;;10.13;;
15764;SDS011;7983;50.744;7.086;2022-11-20T04:41:31;13.77;;;9.30;;
15764;SDS011;7983;50.744;7.086;2022-11-20T04:44:00;14.97;;;10.00;;
15764;SDS011;7983;50.744;7.086;2022-11-20T04:46:29;15.67;;;10.13;;
15764;SDS011;7983;50.744;7.086;2022-11-20T04:48:56;15.80;;;9.73;;
15764;SDS011;7983;50.744;7.086;2022-11-20T04:51:24;17.30;;;10.37;;
15764;SDS011;7983;50.744;7.086;2022-11-20T04:53:53;13.47;;;9.37;;
15764;SDS011;7983;50.744;7.086;2022-11-20T04:56:21;15.80;;;9.63;;
15764;SDS011;7983;50.744;7.086;2022-11-20T04:58:49;13.77;;;9.00;;
15764;SDS011;7983;50.744;7.086;2022-11-20T05:01:21;14.90;;;9.60;;
15764;SDS011;7983;50.744;7.086;2022-11-20T05:03:49;14.47;;;8.87;;
15764;SDS011;7983;50.744;7.086;2022-11-20T05:06:16;15.07;;;9.77;;
15764;SDS011;7983;50.744;7.086;2022-11-20T05:08:44;13.67;;;8.53;;
15764;SDS011;7983;50.744;7.086;2022-11-20T05:11:11;13.17;;;9.33;;
15764;SDS011;7983;50.744;7.086;2022-11-20T05:13:41;15.23;;;9.37;;
15764;SDS011;7983;50.744;7.086;2022-11-20T05:16:14;15.33;;;9.47;;
15764;SDS011;7983;50.744;7.086;2022-11-20T05:18:44;13.23;;;8.63;;
15764;SDS011;7983;50.744;7.086;2022-11-20T05:21:12;14.33;;;9.73;;
15764;SDS011;7983;50.744;7.086;2022-11-20T05:23:41;13.03;;;8.97;;
15764;SDS011;7983;50.744;7.086;2022-11-20T05:26:28;14.83;;;9.77;;
15764;SDS011;7983;50.744;7.086;2022-11-20T05:28:56;13.93;;;8.83;;
15764;SDS011;7983;50.744;7.086;2022-11-20T05:31:24;16.50;;;10.00;;
15764;SDS011;7983;50.744;7.086;2022-11-20T05:33:52;15.07;;;9.70;;
15764;SDS011;7983;50.744;7.086;2022-11-20T05:36:21;17.37;;;10.53;;
15764;SDS011;7983;50.744;7.086;2022-11-20T05:38:47;16.83;;;9.73;;
15764;SDS011;7983;50.744;7.086;2022-11-20T05:41:13;15.40;;;9.93;;
15764;SDS011;7983;50.744;7.086;2022-11-20T05:43:43;17.03;;;10.20;;
15764;SDS011;7983;50.744;7.086;2022-11-20T05:46:12;15.37;;;10.33;;
15764;SDS011;7983;50.744;7.086;2022-11-20T05:48:42;16.27;;;10.23;;
15764;SDS011;7983;50.744;7.086;2022-11-20T05:51:09;16.73;;;10.00;;
15764;SDS011;7983;50.744;7.086;2022-11-20T05:53:36;16.50;;;10.40;;
15764;SDS011;7983;50.744;7.086;2022-11-20T05:58:38;16.63;;;10.90;;
15764;SDS011;7983;50.744;7.086;2022-11-20T06:01:08;18.20;;;10.57;;
15764;SDS011;7983;50.744;7.086;2022-11-20T06:03:41;16.27;;;10.50;;
15764;SDS011;7983;50.744;7.086;2022-11-20T06:06:11;16.40;;;10.00;;
15764;SDS011;7983;50.744;7.086;2022-11-20T06:08:40;14.73;;;9.77;;
15764;SDS011;7983;50.744;7.086;2022-11-20T06:11:09;14.57;;;9.63;;
15764;SDS011;7983;50.744;7.086;2022-11-20T06:13:36;15.70;;;9.97;;
15764;SDS011;7983;50.744;7.086;2022-11-20T06:16:02;15.20;;;9.47;;
15764;SDS011;7983;50.744;7.086;2022-11-20T06:18:28;16.90;;;10.13;;
15764;SDS011;7983;50.744;7.086;2022-11-20T06:23:29;17.83;;;10.23;;
15764;SDS011;7983;50.744;7.086;2022-11-20T06:26:19;17.20;;;9.97;;
15764;SDS011;7983;50.744;7.086;2022-11-20T06:28:50;16.03;;;10.17;;
15764;SDS011;7983;50.744;7.086;2022-11-20T06:31:21;17.37;;;10.87;;
15764;SDS011;7983;50.744;7.086;2022-11-20T06:33:48;15.67;;;10.27;;
15764;SDS011;7983;50.744;7.086;2022-11-20T06:36:15;16.53;;;10.60;;
15764;SDS011;7983;50.744;7.086;2022-11-20T06:38:43;16.37;;;10.40;;
15764;SDS011;7983;50.744;7.086;2022-11-20T06:41:11;12.50;;;9.07;;
15764;SDS011;7983;50.744;7.086;2022-11-20T06:43:38;14.87;;;9.97;;
15764;SDS011;7983;50.744;7.086;2022-11-20T06:46:04;13.23;;;9.97;;
15764;SDS011;7983;50.744;7.086;2022-11-20T06:48:32;13.27;;;9.43;;
15764;SDS011;7983;50.744;7.086;2022-11-20T06:50:58;14.93;;;9.87;;
15764;SDS011;7983;50.744;7.086;2022-11-20T06:53:23;14.60;;;10.00;;
15764;SDS011;7983;50.744;7.086;2022-11-20T06:55:49;13.77;;;9.67;;
15764;SDS011;7983;50.744;7.086;2022-11-20T06:58:16;14.43;;;10.30;;
15764;SDS011;7983;50.744;7.086;2022-11-20T07:00:43;12.00;;;8.53;;
15764;SDS011;7983;50.744;7.086;2022-11-20T07:03:11;12.37;;;9.03;;
15764;SDS011;7983;50.744;7.086;2022-11-20T07:05:39;13.73;;;8.80;;
15764;SDS011;7983;50.744;7.086;2022-11-20T07:08:05;14.47;;;10.33;;
15764;SDS011;7983;50.744;7.086;2022-11-20T07:10:32;16.20;;;11.03;;
15764;SDS011;7983;50.744;7.086;2022-11-20T07:13:00;16.10;;;11.97;;
15764;SDS011;7983;50.744;7.086;2022-11-20T07:15:25;14.03;;;10.70;;
15764;SDS011;7983;50.744;7.086;2022-11-20T07:17:54;13.87;;;9.67;;
15764;SDS011;7983;50.744;7.086;2022-11-20T07:20:19;14.10;;;10.43;;
15764;SDS011;7983;50.744;7.086;2022-11-20T07:22:45;19.07;;;13.90;;
15764;SDS011;7983;50.744;7.086;2022-11-20T07:25:11;13.87;;;10.53;;
15764;SDS011;7983;50.744;7.086;2022-11-20T07:27:39;16.67;;;10.50;;
15764;SDS011;7983;50.744;7.086;2022-11-20T07:30:07;14.57;;;9.97;;
15764;SDS011;7983;50.744;7.086;2022-11-20T07:32:32;12.73;;;9.67;;
15764;SDS011;7983;50.744;7.086;2022-11-20T07:34:58;12.97;;;9.97;;
15764;SDS011;7983;50.744;7.086;2022-11-20T07:37:24;12.87;;;8.70;;
15764;SDS011;7983;50.744;7.086;2022-11-20T07:39:51;12.63;;;9.10;;
15764;SDS011;7983;50.744;7.086;2022-11-20T07:42:19;13.07;;;9.23;;
15764;SDS011;7983;50.744;7.086;2022-11-20T07:44:45;12.77;;;8.97;;
15764;SDS011;7983;50.744;7.086;2022-11-20T07:47:10;12.57;;;8.97;;
15764;SDS011;7983;50.744;7.086;2022-11-20T07:49:36;12.93;;;9.70;;
15764;SDS011;7983;50.744;7.086;2022-11-20T07:52:04;17.30;;;12.77;;
15764;SDS011;7983;50.744;7.086;2022-11-20T07:54:29;14.83;;;10.37;;
15764;SDS011;7983;50.744;7.086;2022-11-20T07:56:55;12.43;;;9.53;;
15764;SDS011;7983;50.744;7.086;2022-11-20T07:59:20;12.60;;;9.07;;
15764;SDS011;7983;50.744;7.086;2022-11-20T08:01:46;13.53;;;9.53;;
15764;SDS011;7983;50.744;7.086;2022-11-20T08:04:14;12.67;;;9.20;;
15764;SDS011;7983;50.744;7.086;2022-11-20T08:06:41;12.37;;;8.97;;
15764;SDS011;7983;50.744;7.086;2022-11-20T08:09:07;12.53;;;9.30;;
15764;SDS011;7983;50.744;7.086;2022-11-20T08:11:33;13.10;;;9.63;;
15764;SDS011;7983;50.744;7.086;2022-11-20T08:14:17;11.80;;;8.83;;
15764;SDS011;7983;50.744;7.086;2022-11-20T08:16:46;11.97;;;8.73;;
15764;SDS011;7983;50.744;7.086;2022-11-20T08:19:13;13.47;;;9.30;;
15764;SDS011;7983;50.744;7.086;2022-11-20T08:21:40;12.53;;;9.17;;
15764;SDS011;7983;50.744;7.086;2022-11-20T08:24:06;12.80;;;8.87;;
15764;SDS011;7983;50.744;7.086;2022-11-20T08:26:33;13.30;;;9.33;;
15764;SDS011;7983;50.744;7.086;2022-11-20T08:28:59;13.00;;;9.30;;
15764;SDS011;7983;50.744;7.086;2022-11-20T08:31:27;13.23;;;8.70;;
15764;SDS011;7983;50.744;7.086;2022-11-20T08:33:53;13.20;;;9.30;;
15764;SDS011;7983;50.744;7.086;2022-11-20T08:36:19;12.40;;;9.17;;
15764;SDS011;7983;50.744;7.086;2022-11-20T08:38:52;13.03;;;9.23;;
15764;SDS011;7983;50.744;7.086;2022-11-20T08:41:21;12.40;;;8.93;;
15764;SDS011;7983;50.744;7.086;2022-11-20T08:46:28;13.27;;;9.53;;
15764;SDS011;7983;50.744;7.086;2022-11-20T08:49:08;13.87;;;9.57;;
15764;SDS011;7983;50.744;7.086;2022-11-20T08:51:35;13.73;;;9.60;;
15764;SDS011;7983;50.744;7.086;2022-11-20T08:54:04;13.90;;;9.57;;
15764;SDS011;7983;50.744;7.086;2022-11-20T08:56:30;14.93;;;9.67;;
15764;SDS011;7983;50.744;7.086;2022-11-20T08:58:56;12.77;;;9.33;;
15764;SDS011;7983;50.744;7.086;2022-11-20T09:01:24;14.60;;;10.23;;
15764;SDS011;7983;50.744;7.086;2022-11-20T09:03:54;13.20;;;9.67;;
15764;SDS011;7983;50.744;7.086;2022-11-20T09:06:23;14.03;;;9.80;;
15764;SDS011;7983;50.744;7.086;2022-11-20T09:08:52;13.93;;;9.90;;
15764;SDS011;7983;50.744;7.086;2022-11-20T09:11:18;13.03;;;9.30;;
15764;SDS011;7983;50.744;7.086;2022-11-20T09:13:46;13.93;;;9.57;;
15764;SDS011;7983;50.744;7.086;2022-11-20T09:16:12;14.03;;;9.87;;
15764;SDS011;7983;50.744;7.086;2022-11-20T09:18:38;13.77;;;9.80;;
15764;SDS011;7983;50.744;7.086;2022-11-20T09:21:05;12.70;;;9.20;;
15764;SDS011;7983;50.744;7.086;2022-11-20T09:23:34;14.40;;;10.53;;
15764;SDS011;7983;50.744;7.086;2022-11-20T09:26:10;13.47;;;9.63;;
15764;SDS011;7983;50.744;7.086;2022-11-20T09:28:37;14.37;;;10.07;;
15764;SDS011;7983;50.744;7.086;2022-11-20T09:31:06;14.97;;;10.27;;
15764;SDS011;7983;50.744;7.086;2022-11-20T09:33:33;14.83;;;10.83;;
15764;SDS011;7983;50.744;7.086;2022-11-20T09:36:00;14.80;;;10.73;;
15764;SDS011;7983;50.744;7.086;2022-11-20T09:38:26;17.13;;;11.13;;
15764;SDS011;7983;50.744;7.086;2022-11-20T09:46:47;16.53;;;11.67;;
15764;SDS011;7983;50.744;7.086;2022-11-20T09:51:53;17.50;;;12.17;;
15764;SDS011;7983;50.744;7.086;2022-11-20T09:54:31;15.10;;;11.23;;
15764;SDS011;7983;50.744;7.086;2022-11-20T09:57:00;16.40;;;11.07;;
15764;SDS011;7983;50.744;7.086;2022-11-20T09:59:41;16.30;;;11.03;;
15764;SDS011;7983;50.744;7.086;2022-11-20T10:04:45;15.27;;;10.77;;
15764;SDS011;7983;50.744;7.086;2022-11-20T10:07:22;17.47;;;12.63;;
15764;SDS011;7983;50.744;7.086;2022-11-20T10:10:01;21.60;;;14.53;;
15764;SDS011;7983;50.744;7.086;2022-11-20T10:20:40;14.67;;;10.20;;
15764;SDS011;7983;50.744;7.086;2022-11-20T10:31:33;11.83;;;8.80;;
15764;SDS011;7983;50.744;7.086;2022-11-20T10:34:21;14.30;;;9.70;;
15764;SDS011;7983;50.744;7.086;2022-11-20T10:36:56;11.93;;;8.43;;
15764;SDS011;7983;50.744;7.086;2022-11-20T10:42:08;14.37;;;9.30;;
15764;SDS011;7983;50.744;7.086;2022-11-20T10:47:49;12.20;;;8.23;;
15764;SDS011;7983;50.744;7.086;2022-11-20T10:50:20;12.73;;;8.17;;
15764;SDS011;7983;50.744;7.086;2022-11-20T10:53:03;12.40;;;8.43;;
15764;SDS011;7983;50.744;7.086;2022-11-20T10:55:50;10.70;;;7.57;;
15764;SDS011;7983;50.744;7.086;2022-11-20T10:58:49;11.43;;;7.30;;
15764;SDS011;7983;50.744;7.086;2022-11-20T11:01:28;10.83;;;8.10;;
15764;SDS011;7983;50.744;7.086;2022-11-20T11:03:55;10.97;;;7.90;;
15764;SDS011;7983;50.744;7.086;2022-11-20T11:09:03;11.33;;;8.27;;
15764;SDS011;7983;50.744;7.086;2022-11-20T11:11:38;12.23;;;8.43;;
15764;SDS011;7983;50.744;7.086;2022-11-20T11:14:08;12.47;;;8.37;;
15764;SDS011;7983;50.744;7.086;2022-11-20T11:16:40;12.87;;;9.00;;
15764;SDS011;7983;50.744;7.086;2022-11-20T11:19:17;13.97;;;8.90;;
15764;SDS011;7983;50.744;7.086;2022-11-20T11:21:46;13.40;;;9.23;;
15764;SDS011;7983;50.744;7.086;2022-11-20T11:24:27;14.27;;;9.00;;
15764;SDS011;7983;50.744;7.086;2022-11-20T11:27:01;13.13;;;9.27;;
15764;SDS011;7983;50.744;7.086;2022-11-20T11:29:36;13.67;;;9.20;;
15764;SDS011;7983;50.744;7.086;2022-11-20T11:32:03;12.33;;;8.50;;
15764;SDS011;7983;50.744;7.086;2022-11-20T11:34:33;11.47;;;8.60;;
15764;SDS011;7983;50.744;7.086;2022-11-20T11:36:59;13.40;;;9.07;;
15764;SDS011;7983;50.744;7.086;2022-11-20T11:39:29;12.83;;;8.77;;
15764;SDS011;7983;50.744;7.086;2022-11-20T11:42:00;10.00;;;7.43;;
15764;SDS011;7983;50.744;7.086;2022-11-20T11:44:33;12.90;;;8.40;;
15764;SDS011;7983;50.744;7.086;2022-11-20T11:52:33;12.17;;;8.50;;
15764;SDS011;7983;50.744;7.086;2022-11-20T11:55:25;11.97;;;8.80;;
15764;SDS011;7983;50.744;7.086;2022-11-20T12:04:13;15.13;;;10.47;;
15764;SDS011;7983;50.744;7.086;2022-11-20T12:06:47;16.57;;;11.37;;
15764;SDS011;7983;50.744;7.086;2022-11-20T12:09:16;15.50;;;10.73;;
15764;SDS011;7983;50.744;7.086;2022-11-20T12:11:55;17.33;;;11.80;;
15764;SDS011;7983;50.744;7.086;2022-11-20T12:14:34;17.17;;;11.77;;
15764;SDS011;7983;50.744;7.086;2022-11-20T12:17:03;16.17;;;11.43;;
15764;SDS011;7983;50.744;7.086;2022-11-20T12:19:30;19.00;;;11.77;;
15764;SDS011;7983;50.744;7.086;2022-11-20T12:22:02;14.90;;;10.73;;
15764;SDS011;7983;50.744;7.086;2022-11-20T12:30:08;14.03;;;9.77;;
15764;SDS011;7983;50.744;7.086;2022-11-20T12:41:02;13.10;;;9.33;;
15764;SDS011;7983;50.744;7.086;2022-11-20T12:47:19;13.67;;;9.23;;
15764;SDS011;7983;50.744;7.086;2022-11-20T13:04:19;14.60;;;9.93;;
15764;SDS011;7983;50.744;7.086;2022-11-20T13:07:02;14.07;;;10.17;;
15764;SDS011;7983;50.744;7.086;2022-11-20T13:09:32;13.50;;;9.70;;
15764;SDS011;7983;50.744;7.086;2022-11-20T13:14:47;17.80;;;10.60;;
15764;SDS011;7983;50.744;7.086;2022-11-20T13:20:05;14.90;;;9.73;;
15764;SDS011;7983;50.744;7.086;2022-11-20T13:25:29;13.40;;;9.50;;
15764;SDS011;7983;50.744;7.086;2022-11-20T13:28:00;13.90;;;9.17;;
15764;SDS011;7983;50.744;7.086;2022-11-20T13:30:29;12.10;;;8.57;;
15764;SDS011;7983;50.744;7.086;2022-11-20T13:32:56;12.57;;;8.47;;
15764;SDS011;7983;50.744;7.086;2022-11-20T13:35:28;12.43;;;8.73;;
15764;SDS011;7983;50.744;7.086;2022-11-20T13:38:11;15.17;;;10.70;;
15764;SDS011;7983;50.744;7.086;2022-11-20T13:40:52;14.40;;;10.17;;
15764;SDS011;7983;50.744;7.086;2022-11-20T13:43:46;12.73;;;9.33;;
15764;SDS011;7983;50.744;7.086;2022-11-20T13:46:14;12.07;;;8.53;;
15764;SDS011;7983;50.744;7.086;2022-11-20T13:54:11;12.47;;;8.83;;
15764;SDS011;7983;50.744;7.086;2022-11-20T14:02:39;12.10;;;8.43;;
15764;SDS011;7983;50.744;7.086;2022-11-20T14:05:06;12.00;;;8.50;;
15764;SDS011;7983;50.744;7.086;2022-11-20T14:07:44;12.17;;;8.30;;
15764;SDS011;7983;50.744;7.086;2022-11-20T14:10:27;12.03;;;9.17;;
15764;SDS011;7983;50.744;7.086;2022-11-20T14:12:53;11.17;;;8.00;;
15764;SDS011;7983;50.744;7.086;2022-11-20T14:15:27;10.40;;;7.73;;
15764;SDS011;7983;50.744;7.086;2022-11-20T14:17:58;10.80;;;7.70;;
15764;SDS011;7983;50.744;7.086;2022-11-20T14:20:37;11.60;;;7.60;;
15764;SDS011;7983;50.744;7.086;2022-11-20T14:23:07;10.67;;;7.80;;
15764;SDS011;7983;50.744;7.086;2022-11-20T14:25:38;10.07;;;7.80;;
15764;SDS011;7983;50.744;7.086;2022-11-20T14:28:11;11.53;;;8.17;;
15764;SDS011;7983;50.744;7.086;2022-11-20T14:30:50;10.67;;;7.83;;
15764;SDS011;7983;50.744;7.086;2022-11-20T14:33:16;9.80;;;7.53;;
15764;SDS011;7983;50.744;7.086;2022-11-20T14:35:48;9.50;;;7.63;;
15764;SDS011;7983;50.744;7.086;2022-11-20T14:38:17;9.47;;;7.63;;
15764;SDS011;7983;50.744;7.086;2022-11-20T14:40:47;8.37;;;6.40;;
15764;SDS011;7983;50.744;7.086;2022-11-20T14:45:52;8.57;;;6.53;;
15764;SDS011;7983;50.744;7.086;2022-11-20T14:48:46;8.47;;;6.67;;
15764;SDS011;7983;50.744;7.086;2022-11-20T14:54:15;9.50;;;6.37;;
15764;SDS011;7983;50.744;7.086;2022-11-20T14:56:54;8.83;;;6.00;;
15764;SDS011;7983;50.744;7.086;2022-11-20T14:59:27;9.40;;;6.53;;
15764;SDS011;7983;50.744;7.086;2022-11-20T15:01:55;10.97;;;7.47;;
15764;SDS011;7983;50.744;7.086;2022-11-20T15:04:22;9.37;;;7.00;;
15764;SDS011;7983;50.744;7.086;2022-11-20T15:06:49;13.77;;;8.47;;
15764;SDS011;7983;50.744;7.086;2022-11-20T15:09:18;12.03;;;8.60;;
15764;SDS011;7983;50.744;7.086;2022-11-20T15:11:54;11.50;;;7.50;;
15764;SDS011;7983;50.744;7.086;2022-11-20T15:14:21;10.87;;;7.63;;
15764;SDS011;7983;50.744;7.086;2022-11-20T15:16:48;9.00;;;6.30;;
15764;SDS011;7983;50.744;7.086;2022-11-20T15:19:21;8.17;;;5.80;;
15764;SDS011;7983;50.744;7.086;2022-11-20T15:21:48;9.13;;;5.77;;
15764;SDS011;7983;50.744;7.086;2022-11-20T15:24:14;5.93;;;3.90;;
15764;SDS011;7983;50.744;7.086;2022-11-20T15:26:40;5.40;;;3.17;;
15764;SDS011;7983;50.744;7.086;2022-11-20T15:29:13;3.67;;;2.17;;
15764;SDS011;7983;50.744;7.086;2022-11-20T15:31:43;3.30;;;2.37;;
15764;SDS011;7983;50.744;7.086;2022-11-20T15:34:16;3.43;;;2.57;;
15764;SDS011;7983;50.744;7.086;2022-11-20T15:36:46;4.97;;;3.10;;
15764;SDS011;7983;50.744;7.086;2022-11-20T15:39:11;5.00;;;3.43;;
15764;SDS011;7983;50.744;7.086;2022-11-20T15:41:37;5.83;;;3.33;;
15764;SDS011;7983;50.744;7.086;2022-11-20T15:44:04;5.77;;;2.77;;
15764;SDS011;7983;50.744;7.086;2022-11-20T15:46:32;3.20;;;2.50;;
15764;SDS011;7983;50.744;7.086;2022-11-20T15:49:05;3.20;;;2.40;;
15764;SDS011;7983;50.744;7.086;2022-11-20T15:51:37;4.60;;;1.93;;
15764;SDS011;7983;50.744;7.086;2022-11-20T15:54:20;3.37;;;1.70;;
15764;SDS011;7983;50.744;7.086;2022-11-20T15:56:50;3.87;;;2.97;;
15764;SDS011;7983;50.744;7.086;2022-11-20T15:59:18;2.83;;;2.30;;
15764;SDS011;7983;50.744;7.086;2022-11-20T16:01:44;2.57;;;1.93;;
15764;SDS011;7983;50.744;7.086;2022-11-20T16:04:13;3.50;;;1.70;;
15764;SDS011;7983;50.744;7.086;2022-11-20T16:06:40;3.97;;;1.87;;
15764;SDS011;7983;50.744;7.086;2022-11-20T16:09:08;3.50;;;2.03;;
15764;SDS011;7983;50.744;7.086;2022-11-20T16:11:34;2.50;;;1.87;;
15764;SDS011;7983;50.744;7.086;2022-11-20T16:14:03;2.80;;;1.70;;
15764;SDS011;7983;50.744;7.086;2022-11-20T16:16:48;2.40;;;1.80;;
15764;SDS011;7983;50.744;7.086;2022-11-20T16:19:16;4.00;;;2.20;;
15764;SDS011;7983;50.744;7.086;2022-11-20T16:21:43;3.60;;;2.43;;
15764;SDS011;7983;50.744;7.086;2022-11-20T16:24:12;4.83;;;3.30;;
15764;SDS011;7983;50.744;7.086;2022-11-20T16:26:42;5.67;;;3.50;;
15764;SDS011;7983;50.744;7.086;2022-11-20T16:29:08;5.87;;;3.47;;
15764;SDS011;7983;50.744;7.086;2022-11-20T16:31:37;4.67;;;3.27;;
15764;SDS011;7983;50.744;7.086;2022-11-20T16:34:04;4.33;;;3.30;;
15764;SDS011;7983;50.744;7.086;2022-11-20T16:36:31;4.33;;;3.10;;
15764;SDS011;7983;50.744;7.086;2022-11-20T16:38:58;4.10;;;3.00;;
15764;SDS011;7983;50.744;7.086;2022-11-20T16:41:26;4.27;;;3.40;;
15764;SDS011;7983;50.744;7.086;2022-11-20T16:43:55;6.37;;;4.13;;
15764;SDS011;7983;50.744;7.086;2022-11-20T16:46:26;5.27;;;4.13;;
15764;SDS011;7983;50.744;7.086;2022-11-20T16:51:21;5.47;;;4.10;;
15764;SDS011;7983;50.744;7.086;2022-11-20T16:53:49;8.13;;;4.60;;
15764;SDS011;7983;50.744;7.086;2022-11-20T16:56:18;5.97;;;4.30;;
15764;SDS011;7983;50.744;7.086;2022-11-20T16:58:50;6.70;;;4.70;;
15764;SDS011;7983;50.744;7.086;2022-11-20T17:01:20;6.07;;;3.90;;
15764;SDS011;7983;50.744;7.086;2022-11-20T17:03:54;6.23;;;4.50;;
15764;SDS011;7983;50.744;7.086;2022-11-20T17:06:23;5.80;;;4.20;;
15764;SDS011;7983;50.744;7.086;2022-11-20T17:08:54;5.00;;;3.67;;
15764;SDS011;7983;50.744;7.086;2022-11-20T17:11:20;6.30;;;3.80;;
15764;SDS011;7983;50.744;7.086;2022-11-20T17:13:48;4.77;;;3.77;;
15764;SDS011;7983;50.744;7.086;2022-11-20T17:16:20;6.47;;;4.07;;